Baie-Saint-Paul, Canada
Current Conditions -  °F | °C
As of 9:00 AM on Tuesday 27 Jan 2015 (Local Time) from CYOY Reporting Station
Clear Clear  
Wind Chill: -23°   Ceiling: Unl
Heat Index: -14°   Visibility: 9mi
Dew Point: -24°   Wind: 13mph
Humidity: 44%   Direction: 70°ENE
Pressure: 30.11"   Gusts: 23mph
Location:  47.43°N, 70.5°W
Report Text: CYOY 271400Z AUTO 07011G20KT 9SM CLR M14/M24 A3011 RMK SLP215
Loading
Personal Weather Stations






























Interactive Weather Map New forecast layout! Learn more

10-Day Weather Forecast

Advertisements
Track Severe Weather on mobile